This is the latest recevied weather packets stored in our database for station/object IR1AA-3. If no packets are shown the sender has not sent any weather packets the latest 10 day(s).
| Time | Temp. | Humidity | Pressure | Rain* | Wind** | Luminosity | Snow |
|---|---|---|---|---|---|---|---|
| 1777744878 | 18.33° C | 90% | 1019.9 hPa | - | - | - | - |
| 1777743078 | 17.22° C | 99% | 1019.9 hPa | - | - | - | - |
| 1777741877 | 17.22° C | 99% | 1019.9 hPa | - | - | - | - |
| 1777740077 | 17.78° C | 88% | 0 hPa | - | - | - | - |
| 1777738276 | 17.78° C | 65% | 1020.6 hPa | - | - | - | - |
| 1777736476 | 17.78° C | 94% | 1020.7 hPa | - | - | - | - |
| 1777734914 | 17.78° C | 91% | 1021 hPa | - | - | - | - |
| 1777733113 | 17.22° C | 79% | 1017 hPa | - | - | - | - |
| 1777731427 | 17.78° C | 86% | 1021.8 hPa | - | - | - | - |
| 1777729627 | 17.22° C | 77% | 1022.4 hPa | - | - | - | - |
| 1777727827 | 17.78° C | 88% | 1022.7 hPa | - | - | - | - |
| 1777657769 | 22.22° C | 40% | 0 hPa | - | - | - | - |
| 1777655969 | 22.22° C | 40% | 0 hPa | - | - | - | - |
| 1777654168 | 22.22° C | 40% | 0 hPa | - | - | - | - |
| 1777652368 | 22.22° C | 40% | 0 hPa | - | - | - | - |
| 1777650568 | 22.22° C | 40% | 0 hPa | - | - | - | - |
| 1777648768 | 22.22° C | 40% | 0 hPa | - | - | - | - |
| 1777646967 | 22.22° C | 40% | 0 hPa | - | - | - | - |
| 1777645167 | 22.22° C | 40% | 0 hPa | - | - | - | - |
| 1777643366 | 22.22° C | 40% | 0 hPa | - | - | - | - |
| 1777641566 | 22.22° C | 40% | 0 hPa | - | - | - | - |
| 1777639766 | 22.22° C | 40% | 0 hPa | - | - | - | - |
| 1777637966 | 23.33° C | 38% | 1023.7 hPa | - | - | - | - |
| 1777636165 | 22.22° C | 39% | 1024.1 hPa | - | - | - | - |
| 1777634365 | 22.22° C | 43% | 1024.4 hPa | - | - | - | - |
* Rain since midnight (hover to see other rain measurements)
** Current wind speed in m/s (hover to see current wind gust speed)